South Bisbee, Arizona
Current Conditions -  °F | °C
As of 8:56 PM on Friday 24 Oct 2014 (Local Time) from KDUG Reporting Station
Clear Clear  
Wind Chill: 60°   Ceiling: Unl
Heat Index: 60°   Visibility: 10mi
Dew Point: 45°   Wind: 5mph
Humidity: 57%   Direction: 330°NNW
Pressure: 30.19"   Gusts: NA
Location:  31.4799°N, 109.96°W
Report Text: KDUG 250356Z AUTO 33004KT 10SM CLR 16/07 A3019 RMK AO2 SLP175 T01560072
Loading
Personal Weather Stations






























Interactive Weather Map
Tropical Storm Tracking
New forecast layout! Learn more

10-Day Weather Forecast

Advertisements
Track Severe Weather on mobile